createdAt,value
2022-11-09T00:01:36.556Z,13.50
2022-11-09T00:04:06.912Z,13.60
2022-11-09T00:06:36.234Z,13.60
2022-11-09T00:09:08.136Z,13.60
2022-11-09T00:11:38.660Z,13.70
2022-11-09T00:14:07.734Z,13.70
2022-11-09T00:16:37.787Z,13.70
2022-11-09T00:19:06.536Z,13.70
2022-11-09T00:21:35.309Z,13.60
2022-11-09T00:24:06.891Z,13.60
2022-11-09T00:26:35.482Z,13.60
2022-11-09T00:29:04.103Z,13.50
2022-11-09T00:31:32.788Z,13.40
2022-11-09T00:34:02.814Z,13.50
2022-11-09T00:36:31.790Z,13.40
2022-11-09T00:39:02.152Z,13.40
2022-11-09T00:41:31.233Z,13.40
2022-11-09T00:43:59.841Z,13.40
2022-11-09T00:46:28.955Z,13.40
2022-11-09T00:48:57.973Z,13.40
2022-11-09T00:51:28.046Z,13.30
2022-11-09T00:53:58.717Z,13.20
2022-11-09T00:56:27.580Z,13.20
2022-11-09T00:58:56.942Z,13.10
2022-11-09T01:01:25.959Z,13.10
2022-11-09T01:03:55.527Z,13.10
2022-11-09T01:06:26.733Z,13.10
2022-11-09T01:08:56.940Z,13.20
2022-11-09T01:11:25.736Z,13.10
2022-11-09T01:13:55.938Z,13.10
2022-11-09T01:16:25.539Z,12.90
2022-11-09T01:18:55.716Z,12.90
2022-11-09T01:21:27.069Z,12.90
2022-11-09T01:23:59.566Z,12.90
2022-11-09T01:26:29.479Z,13.00
2022-11-09T01:28:58.113Z,13.00
2022-11-09T01:31:26.985Z,13.10
2022-11-09T01:33:55.989Z,13.10
2022-11-09T01:36:26.108Z,13.10
2022-11-09T01:38:54.881Z,13.10
2022-11-09T01:41:26.762Z,13.10
2022-11-09T01:44:11.564Z,13.10
2022-11-09T01:46:51.511Z,13.10
2022-11-09T01:49:25.939Z,13.10
2022-11-09T01:51:58.013Z,13.10
2022-11-09T01:54:29.981Z,13.10
2022-11-09T01:57:04.251Z,13.10
2022-11-09T01:59:38.670Z,13.00
2022-11-09T02:02:07.500Z,12.90
2022-11-09T02:04:46.365Z,12.90
2022-11-09T02:07:15.738Z,12.90
2022-11-09T02:09:50.815Z,12.90
2022-11-09T02:12:24.250Z,12.70
2022-11-09T02:14:55.119Z,12.70
2022-11-09T02:17:24.269Z,12.70
2022-11-09T02:19:53.319Z,12.70
2022-11-09T02:22:23.501Z,12.70
2022-11-09T02:24:56.113Z,12.70
2022-11-09T02:27:26.083Z,12.70
2022-11-09T02:29:55.954Z,12.80
2022-11-09T02:32:28.874Z,12.80
2022-11-09T02:34:59.395Z,12.70
2022-11-09T02:37:31.732Z,12.80
2022-11-09T02:40:02.478Z,12.80
2022-11-09T02:42:32.992Z,12.80
2022-11-09T02:45:01.806Z,12.90
2022-11-09T02:47:30.435Z,12.80
2022-11-09T02:49:59.962Z,12.80
2022-11-09T02:52:30.253Z,12.70
2022-11-09T02:54:58.961Z,12.80
2022-11-09T02:57:27.635Z,12.80
2022-11-09T02:59:56.282Z,12.80
2022-11-09T03:02:25.067Z,12.90
2022-11-09T03:04:53.896Z,12.80
2022-11-09T03:07:23.323Z,12.90
2022-11-09T03:09:54.062Z,12.90
2022-11-09T03:12:30.969Z,12.90
2022-11-09T03:15:08.501Z,12.80
2022-11-09T03:17:43.456Z,12.80
2022-11-09T03:20:13.300Z,12.80
2022-11-09T03:22:43.359Z,12.80
2022-11-09T03:25:13.920Z,12.80
2022-11-09T03:27:42.606Z,12.80
2022-11-09T03:30:12.076Z,12.70
2022-11-09T03:32:41.690Z,12.70
2022-11-09T03:35:11.009Z,12.70
2022-11-09T03:37:39.996Z,12.60
2022-11-09T03:40:09.715Z,12.60
2022-11-09T03:42:46.007Z,12.70
2022-11-09T03:45:16.646Z,12.70
2022-11-09T03:47:45.809Z,12.70
2022-11-09T03:50:16.364Z,12.70
2022-11-09T03:52:46.752Z,12.60
2022-11-09T03:55:16.412Z,12.60
2022-11-09T03:57:48.000Z,12.50
2022-11-09T04:00:19.488Z,12.60
2022-11-09T04:02:49.216Z,12.50
2022-11-09T04:05:18.920Z,12.60
2022-11-09T04:07:51.774Z,12.60
2022-11-09T04:10:21.212Z,12.60
2022-11-09T04:12:51.435Z,12.60
2022-11-09T04:15:20.577Z,12.60
2022-11-09T04:17:57.166Z,12.60
2022-11-09T04:20:26.331Z,12.50
2022-11-09T04:22:59.504Z,12.50
2022-11-09T04:25:29.166Z,12.60
2022-11-09T04:27:59.788Z,12.60
2022-11-09T04:30:30.736Z,12.60
2022-11-09T04:33:00.955Z,12.60
2022-11-09T04:35:31.339Z,12.60
2022-11-09T04:38:01.374Z,12.60
2022-11-09T04:40:32.108Z,12.60
2022-11-09T04:43:03.712Z,12.60
2022-11-09T04:45:33.598Z,12.60
2022-11-09T04:48:03.006Z,12.40
2022-11-09T04:50:31.681Z,12.30
2022-11-09T04:53:10.062Z,12.20
2022-11-09T04:55:38.898Z,12.30
2022-11-09T04:58:09.935Z,12.20
2022-11-09T05:00:39.778Z,12.20
2022-11-09T05:03:09.390Z,12.20
2022-11-09T05:05:44.007Z,12.20
2022-11-09T05:08:15.742Z,12.10
2022-11-09T05:10:44.926Z,12.10
2022-11-09T05:13:15.828Z,12.10
2022-11-09T05:15:45.175Z,12.20
2022-11-09T05:18:13.866Z,12.30
2022-11-09T05:20:42.434Z,12.40
2022-11-09T05:23:29.092Z,12.40
2022-11-09T05:25:57.730Z,12.40
2022-11-09T05:28:28.070Z,12.40
2022-11-09T05:31:00.910Z,12.30
2022-11-09T05:33:29.571Z,12.20
2022-11-09T05:35:58.383Z,12.30
2022-11-09T05:38:27.098Z,12.30
2022-11-09T05:40:57.114Z,12.30
2022-11-09T05:43:27.260Z,12.20
2022-11-09T05:45:55.937Z,12.30
2022-11-09T05:48:24.562Z,12.50
2022-11-09T05:50:53.542Z,12.50
2022-11-09T05:53:28.223Z,12.60
2022-11-09T05:55:57.192Z,12.60
2022-11-09T05:58:27.221Z,12.90
2022-11-09T06:00:55.915Z,12.90
2022-11-09T06:03:24.532Z,12.90
2022-11-09T06:06:20.588Z,12.80
2022-11-09T06:08:50.888Z,12.70
2022-11-09T06:11:23.909Z,12.90
2022-11-09T06:13:54.777Z,12.90
2022-11-09T06:16:23.381Z,13.00
2022-11-09T06:18:52.037Z,13.00
2022-11-09T06:21:20.664Z,13.00
2022-11-09T06:23:49.446Z,13.10
2022-11-09T06:26:18.058Z,13.10
2022-11-09T06:28:47.656Z,13.30
2022-11-09T06:31:21.112Z,13.40
2022-11-09T06:33:49.825Z,13.50
2022-11-09T06:36:18.613Z,13.60
2022-11-09T06:38:50.698Z,13.60
2022-11-09T06:41:19.739Z,13.60
2022-11-09T06:43:48.335Z,13.70
2022-11-09T06:46:18.595Z,13.90
2022-11-09T06:48:51.871Z,13.90
2022-11-09T06:51:22.977Z,14.00
2022-11-09T06:53:51.870Z,14.00
2022-11-09T06:56:20.486Z,14.10
2022-11-09T06:58:49.212Z,14.20
2022-11-09T07:01:21.882Z,14.30
2022-11-09T07:03:50.555Z,14.30
2022-11-09T07:06:19.203Z,14.40
2022-11-09T07:08:47.802Z,14.60
2022-11-09T07:11:17.633Z,14.80
2022-11-09T07:13:46.679Z,14.90
2022-11-09T07:16:17.419Z,15.00
2022-11-09T07:18:47.897Z,15.10
2022-11-09T07:21:17.063Z,15.00
2022-11-09T07:23:49.330Z,15.20
2022-11-09T07:26:18.552Z,15.20
2022-11-09T07:28:47.121Z,15.30
2022-11-09T07:31:15.754Z,15.40
2022-11-09T07:33:44.384Z,15.50
2022-11-09T07:36:19.767Z,15.70
2022-11-09T07:38:49.979Z,15.70
2022-11-09T07:41:18.546Z,15.80
2022-11-09T07:43:47.360Z,15.90
2022-11-09T07:46:16.016Z,16.00
2022-11-09T07:48:44.627Z,16.00
2022-11-09T07:51:14.716Z,16.10
2022-11-09T07:53:43.478Z,16.10
2022-11-09T07:56:12.097Z,16.20
2022-11-09T07:58:41.057Z,16.40
2022-11-09T08:01:10.656Z,16.60
2022-11-09T08:03:39.523Z,16.80
2022-11-09T08:06:08.198Z,16.90
2022-11-09T08:08:38.269Z,17.00
2022-11-09T08:11:07.136Z,16.90
2022-11-09T08:13:35.719Z,16.90
2022-11-09T08:16:05.121Z,17.00
2022-11-09T08:18:33.879Z,17.10
2022-11-09T08:21:03.952Z,17.10
2022-11-09T08:23:32.644Z,17.20
2022-11-09T08:26:06.114Z,17.40
2022-11-09T08:28:36.512Z,17.50
2022-11-09T08:31:08.129Z,17.50
2022-11-09T08:33:40.950Z,17.50
2022-11-09T08:36:12.093Z,17.50
2022-11-09T08:38:41.371Z,17.60
2022-11-09T08:41:13.633Z,17.60
2022-11-09T08:43:42.795Z,17.80
2022-11-09T08:46:11.410Z,17.80
2022-11-09T08:48:40.128Z,17.90
2022-11-09T08:51:08.749Z,17.90
2022-11-09T08:53:37.396Z,18.00
2022-11-09T08:56:07.989Z,18.00
2022-11-09T08:58:38.335Z,18.10
2022-11-09T09:01:15.349Z,18.00
2022-11-09T09:03:45.677Z,18.00
2022-11-09T09:06:14.593Z,18.10
2022-11-09T09:08:43.370Z,18.10
2022-11-09T09:11:11.994Z,18.10
2022-11-09T09:13:43.705Z,18.10
2022-11-09T09:16:13.706Z,18.10
2022-11-09T09:18:42.321Z,18.00
2022-11-09T09:21:12.062Z,18.10
2022-11-09T09:23:40.700Z,18.10
2022-11-09T09:26:09.360Z,18.20
2022-11-09T09:28:38.198Z,18.20
2022-11-09T09:31:08.820Z,18.20
2022-11-09T09:33:37.537Z,18.30
2022-11-09T09:36:06.571Z,18.30
2022-11-09T09:38:35.209Z,18.30
2022-11-09T09:41:06.681Z,18.40
2022-11-09T09:43:43.319Z,18.50
2022-11-09T09:46:21.410Z,18.50
2022-11-09T09:48:54.660Z,18.50
2022-11-09T09:51:39.170Z,18.50
2022-11-09T09:54:18.510Z,18.50
2022-11-09T09:56:50.234Z,18.60
2022-11-09T09:59:24.982Z,18.60
2022-11-09T10:01:57.540Z,18.70
2022-11-09T10:04:37.290Z,18.80
2022-11-09T10:07:12.632Z,18.90
2022-11-09T10:09:54.856Z,18.90
2022-11-09T10:12:34.563Z,18.90
2022-11-09T10:15:14.147Z,19.00
2022-11-09T10:17:53.200Z,19.10
2022-11-09T10:20:32.910Z,19.20
2022-11-09T10:23:18.070Z,19.30
2022-11-09T10:26:03.504Z,19.50
2022-11-09T10:29:09.239Z,19.60
2022-11-09T10:31:33.866Z,19.60
2022-11-09T10:34:15.367Z,19.70
2022-11-09T10:36:49.812Z,19.70
2022-11-09T10:39:19.846Z,19.70
2022-11-09T10:42:07.152Z,19.90
2022-11-09T10:44:55.604Z,20.10
2022-11-09T10:47:50.297Z,20.10
2022-11-09T10:50:41.118Z,20.10
2022-11-09T10:53:30.878Z,20.00
2022-11-09T10:56:22.128Z,20.10
2022-11-09T10:59:42.296Z,20.20
2022-11-09T11:02:45.668Z,20.40
2022-11-09T11:05:37.470Z,20.60
2022-11-09T11:08:36.442Z,20.80
2022-11-09T11:11:37.043Z,20.90
2022-11-09T11:14:33.113Z,20.70
2022-11-09T11:17:26.518Z,20.80
2022-11-09T11:20:29.742Z,20.90
2022-11-09T11:23:21.085Z,21.00
2022-11-09T11:26:32.916Z,20.90
2022-11-09T11:29:44.504Z,21.10
2022-11-09T11:32:32.576Z,21.10
2022-11-09T11:35:24.552Z,21.30
2022-11-09T11:38:24.016Z,21.50
2022-11-09T11:41:42.658Z,21.60
2022-11-09T11:44:46.827Z,21.90
2022-11-09T11:47:48.721Z,21.80
2022-11-09T11:50:45.654Z,22.10
2022-11-09T11:53:47.466Z,22.10
2022-11-09T11:56:39.271Z,22.10
2022-11-09T11:59:50.909Z,22.30
2022-11-09T12:03:06.541Z,22.50
2022-11-09T12:06:18.749Z,22.90
2022-11-09T12:09:20.796Z,24.20
2022-11-09T12:12:20.815Z,25.10
2022-11-09T12:15:24.814Z,26.00
2022-11-09T12:18:25.664Z,26.40
2022-11-09T12:21:17.900Z,27.60
2022-11-09T12:24:19.902Z,27.90
2022-11-09T12:27:32.953Z,28.10
2022-11-09T12:30:24.293Z,29.10
2022-11-09T12:33:16.869Z,30.60
2022-11-09T12:36:13.577Z,31.70
2022-11-09T12:39:05.699Z,31.80
2022-11-09T12:41:55.086Z,31.90
2022-11-09T12:44:48.289Z,32.50
2022-11-09T12:47:42.807Z,32.70
2022-11-09T12:50:30.766Z,32.40
2022-11-09T12:53:19.308Z,32.80
2022-11-09T12:56:11.420Z,33.30
2022-11-09T12:59:23.539Z,32.50
2022-11-09T13:02:25.934Z,31.20
2022-11-09T13:08:19.744Z,28.60
2022-11-09T13:11:18.814Z,24.80
2022-11-09T13:14:35.242Z,23.70
2022-11-09T13:18:01.620Z,23.00
2022-11-09T13:20:55.883Z,22.40
2022-11-09T13:24:04.368Z,21.80
2022-11-09T13:27:02.370Z,21.20
2022-11-09T13:29:55.277Z,20.90
2022-11-09T13:33:25.881Z,20.80
2022-11-09T13:36:22.504Z,20.60
2022-11-09T13:39:33.577Z,20.60
2022-11-09T13:42:29.081Z,20.60
2022-11-09T13:45:29.250Z,20.40
2022-11-09T13:48:40.134Z,20.30
2022-11-09T13:51:43.781Z,20.20
2022-11-09T13:54:35.026Z,20.20
2022-11-09T13:57:33.564Z,20.10
2022-11-09T14:00:24.503Z,20.20
2022-11-09T14:03:22.036Z,20.20
2022-11-09T14:06:16.920Z,20.00
2022-11-09T14:09:04.648Z,19.90
2022-11-09T14:12:17.328Z,19.90
2022-11-09T14:15:34.231Z,19.80
2022-11-09T14:18:32.937Z,19.70
2022-11-09T14:21:33.252Z,19.70
2022-11-09T14:24:21.984Z,19.70
2022-11-09T14:27:19.981Z,19.70
2022-11-09T14:30:20.540Z,19.60
2022-11-09T14:33:25.536Z,19.50
2022-11-09T14:36:14.384Z,19.40
2022-11-09T14:39:04.004Z,19.30
2022-11-09T14:41:52.581Z,19.30
2022-11-09T14:44:45.293Z,19.20
2022-11-09T14:47:35.891Z,19.20
2022-11-09T14:50:25.391Z,19.20
2022-11-09T14:53:16.547Z,19.10
2022-11-09T14:56:05.928Z,19.10
2022-11-09T14:58:53.740Z,19.00
2022-11-09T15:01:58.546Z,19.00
2022-11-09T15:05:01.390Z,19.00
2022-11-09T15:07:49.689Z,18.80
2022-11-09T15:10:37.154Z,18.60
2022-11-09T15:13:32.368Z,18.60
2022-11-09T15:16:24.936Z,18.50
2022-11-09T15:19:25.029Z,18.50
2022-11-09T15:22:43.841Z,18.40
2022-11-09T15:25:34.234Z,18.40
2022-11-09T15:28:26.693Z,18.30
2022-11-09T15:31:17.145Z,18.30
2022-11-09T15:34:19.768Z,18.20
2022-11-09T15:37:21.605Z,18.10
2022-11-09T15:40:13.712Z,17.90
2022-11-09T15:43:00.997Z,17.90
2022-11-09T15:45:48.448Z,18.00
2022-11-09T15:48:36.918Z,18.00
2022-11-09T15:51:24.253Z,18.00
2022-11-09T15:54:13.028Z,17.90
2022-11-09T15:57:00.461Z,17.80
2022-11-09T15:59:48.551Z,17.80
2022-11-09T16:02:36.614Z,17.90
2022-11-09T16:05:27.840Z,18.00
2022-11-09T16:08:23.830Z,18.00
2022-11-09T16:11:12.935Z,18.00
2022-11-09T16:14:02.406Z,18.00
2022-11-09T16:16:50.204Z,18.10
2022-11-09T16:19:39.745Z,18.10
2022-11-09T16:22:33.634Z,18.00
2022-11-09T16:25:21.037Z,18.00
2022-11-09T16:28:09.999Z,17.70
2022-11-09T16:30:57.787Z,17.60
2022-11-09T16:33:45.249Z,17.50
2022-11-09T16:36:34.084Z,17.30
2022-11-09T16:39:25.101Z,17.20
2022-11-09T16:42:15.636Z,17.00
2022-11-09T16:45:09.219Z,16.90
2022-11-09T16:47:58.548Z,16.80
2022-11-09T16:50:47.377Z,16.70
2022-11-09T16:53:34.892Z,16.50
2022-11-09T16:56:22.391Z,16.50
2022-11-09T16:59:09.807Z,16.40
2022-11-09T17:01:59.992Z,16.40
2022-11-09T17:04:47.608Z,16.30
2022-11-09T17:07:42.193Z,16.30
2022-11-09T17:10:31.222Z,16.20
2022-11-09T17:13:18.818Z,16.20
2022-11-09T17:16:07.580Z,16.20
2022-11-09T17:18:57.361Z,16.20
2022-11-09T17:21:44.680Z,16.20
2022-11-09T17:24:34.618Z,16.10
2022-11-09T17:27:21.726Z,16.10
2022-11-09T17:30:12.671Z,16.10
2022-11-09T17:33:00.057Z,16.00
2022-11-09T17:35:48.845Z,15.90
2022-11-09T17:38:36.067Z,15.90
2022-11-09T17:41:23.278Z,15.90
2022-11-09T17:44:11.406Z,15.80
2022-11-09T17:46:58.891Z,15.80
2022-11-09T17:49:45.955Z,15.70
2022-11-09T17:52:34.541Z,15.70
2022-11-09T17:55:21.472Z,15.70
2022-11-09T17:58:08.586Z,15.60
2022-11-09T18:00:56.580Z,15.60
2022-11-09T18:03:45.166Z,15.50
2022-11-09T18:06:32.621Z,15.50
2022-11-09T18:12:28.783Z,15.40
2022-11-09T18:15:16.153Z,15.30
2022-11-09T18:18:04.695Z,15.30
2022-11-09T18:20:52.076Z,15.20
2022-11-09T18:23:39.549Z,15.20
2022-11-09T18:26:29.447Z,15.10
2022-11-09T18:29:16.951Z,15.10
2022-11-09T18:32:04.302Z,15.10
2022-11-09T18:34:52.690Z,15.00
2022-11-09T18:37:40.352Z,15.00
2022-11-09T18:40:27.814Z,14.90
2022-11-09T18:43:16.618Z,14.90
2022-11-09T18:46:06.990Z,14.80
2022-11-09T18:48:55.190Z,14.70
2022-11-09T18:51:44.658Z,14.80
2022-11-09T18:54:32.926Z,14.80
2022-11-09T18:57:20.289Z,14.70
2022-11-09T19:00:11.007Z,14.80
2022-11-09T19:02:58.467Z,14.70
2022-11-09T19:05:48.346Z,14.60
2022-11-09T19:09:08.603Z,14.50
2022-11-09T19:11:56.029Z,14.70
2022-11-09T19:14:44.747Z,14.50
2022-11-09T19:17:34.078Z,14.50
2022-11-09T19:20:22.403Z,14.50
2022-11-09T19:23:09.675Z,14.50
2022-11-09T19:25:58.300Z,14.50
2022-11-09T19:28:45.705Z,14.50
2022-11-09T19:31:33.007Z,14.50
2022-11-09T19:34:22.786Z,14.40
2022-11-09T19:37:11.203Z,14.50
2022-11-09T19:39:58.658Z,14.50
2022-11-09T19:42:45.762Z,14.50
2022-11-09T19:45:33.180Z,14.50
2022-11-09T19:48:20.647Z,14.50
2022-11-09T19:51:09.659Z,14.40
2022-11-09T19:53:58.644Z,14.50
2022-11-09T19:56:45.851Z,14.50
2022-11-09T19:59:34.492Z,14.50
2022-11-09T20:02:22.042Z,14.50
2022-11-09T20:05:09.732Z,14.50
2022-11-09T20:07:59.498Z,14.50
2022-11-09T20:10:46.899Z,14.50
2022-11-09T20:13:34.215Z,14.40
2022-11-09T20:16:21.283Z,14.40
2022-11-09T20:19:11.432Z,14.40
2022-11-09T20:21:58.881Z,14.50
2022-11-09T20:24:47.450Z,14.40
2022-11-09T20:27:34.919Z,14.30
2022-11-09T20:30:22.541Z,14.20
2022-11-09T20:33:11.181Z,14.20
2022-11-09T20:35:59.048Z,14.30
2022-11-09T20:38:48.728Z,14.20
2022-11-09T20:41:37.304Z,14.20
2022-11-09T20:44:24.822Z,14.10
2022-11-09T20:47:12.046Z,14.20
2022-11-09T20:49:59.150Z,14.20
2022-11-09T20:52:46.313Z,14.20
2022-11-09T20:55:33.510Z,14.10
2022-11-09T20:58:23.372Z,14.10
2022-11-09T21:01:16.810Z,14.10
2022-11-09T21:04:04.730Z,14.20
2022-11-09T21:06:55.599Z,14.20
2022-11-09T21:09:42.781Z,14.10
2022-11-09T21:12:30.754Z,14.20
2022-11-09T21:15:19.769Z,14.10
2022-11-09T21:18:09.053Z,14.10
2022-11-09T21:20:56.665Z,14.10
2022-11-09T21:24:01.679Z,14.20
2022-11-09T21:27:06.231Z,14.10
2022-11-09T21:29:55.798Z,14.10
2022-11-09T21:32:44.699Z,14.10
2022-11-09T21:35:32.153Z,14.00
2022-11-09T21:38:19.880Z,13.90
2022-11-09T21:41:24.064Z,14.00
2022-11-09T21:44:13.337Z,14.00
2022-11-09T21:47:01.101Z,14.00
2022-11-09T21:49:49.666Z,14.00
2022-11-09T21:52:37.155Z,14.00
2022-11-09T21:55:24.554Z,13.90
2022-11-09T21:58:11.632Z,13.90
2022-11-09T22:01:02.177Z,13.80
2022-11-09T22:03:49.651Z,13.80
2022-11-09T22:06:40.670Z,13.70
2022-11-09T22:09:32.450Z,13.70
2022-11-09T22:12:46.026Z,13.60
2022-11-09T22:15:50.464Z,13.50
2022-11-09T22:18:55.970Z,13.50
2022-11-09T22:21:44.879Z,13.50
2022-11-09T22:24:32.351Z,13.60
2022-11-09T22:27:19.570Z,13.60
2022-11-09T22:30:08.544Z,13.60
2022-11-09T22:32:58.921Z,13.60
2022-11-09T22:35:46.362Z,13.60
2022-11-09T22:38:37.020Z,13.70
2022-11-09T22:41:24.959Z,13.70
2022-11-09T22:44:13.160Z,13.70
2022-11-09T22:47:01.043Z,13.50
2022-11-09T22:49:49.072Z,13.60
2022-11-09T22:52:36.150Z,13.60
2022-11-09T22:55:25.323Z,13.60
2022-11-09T22:58:13.676Z,13.60
2022-11-09T23:01:07.703Z,13.60
2022-11-09T23:03:55.309Z,13.60
2022-11-09T23:06:43.693Z,13.70
2022-11-09T23:09:30.935Z,13.70
2022-11-09T23:12:19.318Z,13.60
2022-11-09T23:15:12.814Z,13.60
2022-11-09T23:18:17.278Z,13.60
2022-11-09T23:21:04.378Z,13.60
2022-11-09T23:23:53.551Z,13.60
2022-11-09T23:26:40.965Z,13.50
2022-11-09T23:29:29.523Z,13.50
2022-11-09T23:32:17.877Z,13.60
2022-11-09T23:35:08.313Z,13.50
2022-11-09T23:38:00.414Z,13.50
2022-11-09T23:40:47.796Z,13.50
2022-11-09T23:43:35.561Z,13.40
2022-11-09T23:46:24.594Z,13.40
2022-11-09T23:49:11.678Z,13.30
2022-11-09T23:51:58.774Z,13.40
2022-11-09T23:54:46.867Z,13.40
2022-11-09T23:57:35.188Z,13.30
